Alconbury RAF, United Kingdom

6:22 PM BST on July 24, 2016 (GMT +0100)
Alconbury Weston | | Change Station

Elev 79 ft 52.37 °N, 0.28 °W | Updated 14 seconds ago

Scattered Clouds
Scattered Clouds
73.2 °F
Feels Like 76 °F
N
0.2
Wind Variable Wind from West
Gusts 2.5 mph

Today
High -- | Low -- °F
--% Chance of Precip.
Yesterday
High -- | Low -- °F
Precip. -- in
Pressure 29.98 in
Visibility 6.2 miles
Clouds Mostly Cloudy 3000 ft
Scattered Clouds 7000 ft
Heat Index 76 °F
Dew Point 62 °F
Humidity 67%
Rainfall 0.00 in
Snow Depth Not available.
5:09 AM 9:04 PM
Waning Gibbous, 74% visible
METAR EGXT 241650Z AUTO 22013KT 9999 BKN030/// SCT070/// 22/16 Q1015 RERA
Pressure 29.98 in
Visibility 6.2 miles
Clouds Mostly Cloudy 3000 ft
Scattered Clouds 7000 ft
Heat Index 76 °F
Dew Point 62 °F
Humidity 67%
Rainfall 0.00 in
Snow Depth Not available.
5:09 AM 9:04 PM
Waning Gibbous, 74% visible
METAR EGXT 241650Z AUTO 22013KT 9999 BKN030/// SCT070/// 22/16 Q1015 RERA

10-Day Weather Forecast

×

Almanac

Astronomy

Jul. 24, 2016 Rise Set
Actual Time
Civil Twilight
Nautical Twilight
Astronomical Twilight
Moon
Length of Visible Light
Length of Day
Tomorrow will be .
, % of the Moon is Illuminated

Today's Extremes

Country Highs Country Lows

Community

WunderPhotos

Upload Photos

1,927,127 photos uploaded!

WunderBlog® & News

Nearby

Air Quality

  Air Quality AQ Index Pollutant
Not available.

Snow Depth

Station Depth Elevation

Earthquake Activity

City Distance Mag. Time & Date
Minimum magnitude displayed is 2.5.

Coastal Water Temperatures

Place Temperature

Stations

Nearby Weather Stations

Station Location Temp. Windchill Dew Point Humidity Wind Precip. Elev Updated Type